Time;durP1;ratioP1;P1;durP2;ratioP2;P2;SDS_P1;SDS_P2;PMS_P1;PMS_P2;Temp;Humidity;BMP_temperature;BMP_pressure;BME280_temperature;BME280_humidity;BME280_pressure;Samples;Min_cycle;Max_cycle;Signal;HPM_P1;HPM_P2
2022/06/21 00:00:41;;;;;;;2.67;2.20;;;;;;;;;;5032553;28;20234;-85
2022/06/21 00:03:09;;;;;;;2.80;2.50;;;;;;;;;;5032788;28;20254;-85
2022/06/21 00:05:39;;;;;;;3.10;2.27;;;;;;;;;;5032454;28;20245;-85
2022/06/21 00:08:07;;;;;;;2.63;2.43;;;;;;;;;;5032933;28;21515;-85
2022/06/21 00:10:35;;;;;;;4.43;3.17;;;;;;;;;;5032414;28;20234;-85
2022/06/21 00:13:04;;;;;;;2.43;2.23;;;;;;;;;;5032908;28;20592;-86
2022/06/21 00:15:31;;;;;;;6.10;2.20;;;;;;;;;;5032305;28;20243;-85
2022/06/21 00:17:58;;;;;;;2.57;2.37;;;;;;;;;;5032710;28;20206;-85
2022/06/21 00:20:27;;;;;;;4.10;2.50;;;;;;;;;;5032085;28;20238;-85
2022/06/21 00:22:55;;;;;;;3.23;2.30;;;;;;;;;;5033107;28;20209;-86
2022/06/21 00:25:24;;;;;;;2.73;2.47;;;;;;;;;;5032125;28;20655;-85
2022/06/21 00:27:51;;;;;;;4.40;2.50;;;;;;;;;;5032676;28;20285;-84
2022/06/21 00:30:19;;;;;;;3.07;2.63;;;;;;;;;;5032251;28;20245;-85
2022/06/21 00:32:47;;;;;;;2.50;2.30;;;;;;;;;;5032906;28;20210;-85
2022/06/21 00:35:16;;;;;;;2.73;2.37;;;;;;;;;;5032210;28;20234;-85
2022/06/21 00:37:44;;;;;;;2.73;2.50;;;;;;;;;;5032922;28;20210;-85
2022/06/21 00:40:17;;;;;;;3.60;2.60;;;;;;;;;;5036221;28;20238;-85
2022/06/21 00:42:45;;;;;;;2.50;2.30;;;;;;;;;;5036979;28;20214;-87
2022/06/21 00:45:15;;;;;;;2.70;2.50;;;;;;;;;;5036655;28;20230;-88
2022/06/21 00:47:44;;;;;;;2.57;2.37;;;;;;;;;;5036784;28;20572;-85
2022/06/21 00:50:16;;;;;;;2.50;2.30;;;;;;;;;;5035965;28;20694;-85
2022/06/21 00:52:46;;;;;;;2.57;2.30;;;;;;;;;;5036614;28;20207;-85
2022/06/21 00:55:16;;;;;;;2.60;2.40;;;;;;;;;;5035658;28;20257;-85
2022/06/21 00:57:48;;;;;;;2.90;2.50;;;;;;;;;;5036374;28;20206;-85
2022/06/21 01:00:24;;;;;;;2.67;2.47;;;;;;;;;;5035822;28;20233;-85
2022/06/21 01:02:51;;;;;;;3.93;2.63;;;;;;;;;;5036622;28;20199;-85
2022/06/21 01:05:19;;;;;;;2.67;2.53;;;;;;;;;;5035682;28;20230;-85
2022/06/21 01:07:46;;;;;;;3.90;2.63;;;;;;;;;;5035683;28;20294;-85
2022/06/21 01:10:14;;;;;;;3.03;2.70;;;;;;;;;;5035676;28;20302;-86
2022/06/21 01:12:43;;;;;;;2.90;2.70;;;;;;;;;;5036063;28;21033;-85
2022/06/21 01:15:17;;;;;;;2.63;2.43;;;;;;;;;;5035943;28;20728;-85
2022/06/21 01:17:45;;;;;;;2.87;2.63;;;;;;;;;;5036264;28;20195;-85
2022/06/21 01:20:13;;;;;;;2.63;2.43;;;;;;;;;;5035412;28;20702;-85
2022/06/21 01:22:45;;;;;;;4.70;3.07;;;;;;;;;;5036043;28;20214;-85
2022/06/21 01:25:35;;;;;;;3.43;2.63;;;;;;;;;;5035648;28;20238;-85
2022/06/21 01:28:03;;;;;;;2.80;2.50;;;;;;;;;;5036024;28;20604;-87
2022/06/21 01:30:30;;;;;;;2.90;2.70;;;;;;;;;;5035309;28;20235;-85
2022/06/21 01:32:58;;;;;;;3.97;2.40;;;;;;;;;;5035635;28;20667;-84
2022/06/21 01:35:29;;;;;;;3.13;2.60;;;;;;;;;;5035201;28;20695;-84
2022/06/21 01:37:56;;;;;;;2.37;2.23;;;;;;;;;;5035843;28;20589;-84
2022/06/21 01:40:25;;;;;;;2.80;2.60;;;;;;;;;;5035329;28;20234;-84
2022/06/21 01:42:54;;;;;;;3.00;2.80;;;;;;;;;;5036027;28;20244;-84
2022/06/21 01:45:25;;;;;;;2.70;2.50;;;;;;;;;;5035157;28;20280;-84
2022/06/21 01:47:54;;;;;;;2.60;2.40;;;;;;;;;;5035699;28;20206;-85
2022/06/21 01:50:22;;;;;;;2.70;2.50;;;;;;;;;;5034450;28;20234;-85
2022/06/21 01:52:51;;;;;;;2.90;2.70;;;;;;;;;;5035654;28;20203;-84
2022/06/21 01:55:21;;;;;;;2.60;2.40;;;;;;;;;;5034501;28;20235;-85
2022/06/21 01:57:49;;;;;;;3.13;2.70;;;;;;;;;;5035462;28;20179;-84
2022/06/21 02:00:17;;;;;;;3.00;2.67;;;;;;;;;;5037276;28;20231;-84
2022/06/21 02:02:47;;;;;;;2.80;2.60;;;;;;;;;;5036711;28;20589;-85
2022/06/21 02:05:17;;;;;;;3.00;2.63;;;;;;;;;;5036327;28;20230;-85
2022/06/21 02:07:46;;;;;;;3.27;2.67;;;;;;;;;;5035299;28;20211;-84
2022/06/21 02:10:16;;;;;;;2.60;2.40;;;;;;;;;;5034547;28;20235;-85
2022/06/21 02:12:48;;;;;;;3.50;2.77;;;;;;;;;;5035446;28;20210;-84
2022/06/21 02:15:20;;;;;;;2.83;2.63;;;;;;;;;;5034759;28;20238;-84
2022/06/21 02:17:50;;;;;;;2.97;2.77;;;;;;;;;;5035269;28;20194;-85
2022/06/21 02:20:20;;;;;;;3.23;3.00;;;;;;;;;;5034837;28;20238;-84
2022/06/21 02:22:47;;;;;;;2.80;2.60;;;;;;;;;;5035026;28;20207;-85
2022/06/21 02:25:16;;;;;;;3.40;3.10;;;;;;;;;;5034467;28;20242;-84
2022/06/21 02:27:43;;;;;;;3.30;2.87;;;;;;;;;;5034994;28;20207;-85
2022/06/21 02:30:15;;;;;;;3.50;3.17;;;;;;;;;;5034180;28;20250;-85
2022/06/21 02:32:42;;;;;;;2.90;2.70;;;;;;;;;;5035030;28;20213;-85
2022/06/21 02:35:16;;;;;;;4.90;3.00;;;;;;;;;;5034321;28;20238;-84
2022/06/21 02:37:44;;;;;;;3.33;2.70;;;;;;;;;;5034544;28;20199;-85
2022/06/21 02:40:18;;;;;;;3.00;2.80;;;;;;;;;;5034121;28;20238;-85
2022/06/21 02:42:45;;;;;;;3.73;2.90;;;;;;;;;;5034562;28;20188;-84
2022/06/21 02:45:19;;;;;;;3.03;2.83;;;;;;;;;;5034097;28;20234;-84
2022/06/21 02:47:47;;;;;;;3.03;2.73;;;;;;;;;;5034773;28;20571;-85
2022/06/21 02:50:24;;;;;;;3.00;2.70;;;;;;;;;;5033794;28;20234;-85
2022/06/21 02:52:53;;;;;;;2.80;2.60;;;;;;;;;;5034447;28;20198;-84
2022/06/21 02:55:27;;;;;;;5.03;3.03;;;;;;;;;;5033916;28;20322;-85
2022/06/21 02:57:57;;;;;;;3.33;3.07;;;;;;;;;;5034429;28;20213;-84
2022/06/21 03:00:24;;;;;;;2.90;2.70;;;;;;;;;;5034674;28;20261;-89
2022/06/21 03:02:52;;;;;;;2.90;2.70;;;;;;;;;;5034821;28;20214;-88
2022/06/21 03:05:23;;;;;;;4.50;3.37;;;;;;;;;;5033834;28;20234;-88
2022/06/21 03:07:53;;;;;;;2.83;2.63;;;;;;;;;;5034790;28;20565;-89
2022/06/21 03:10:23;;;;;;;2.77;2.60;;;;;;;;;;5033908;28;20261;-89
2022/06/21 03:12:51;;;;;;;2.73;2.53;;;;;;;;;;5034761;28;20659;-88
2022/06/21 03:15:18;;;;;;;5.60;2.53;;;;;;;;;;5033514;28;20241;-89
2022/06/21 03:17:48;;;;;;;3.23;2.90;;;;;;;;;;5034417;28;20215;-87
2022/06/21 03:20:16;;;;;;;4.77;2.80;;;;;;;;;;5033702;28;20238;-88
2022/06/21 03:22:46;;;;;;;2.60;2.40;;;;;;;;;;5034406;28;20210;-88
2022/06/21 03:25:19;;;;;;;5.00;2.97;;;;;;;;;;5033253;28;20261;-88
2022/06/21 03:27:50;;;;;;;3.40;2.80;;;;;;;;;;5034123;28;20211;-89
2022/06/21 03:30:18;;;;;;;2.90;2.70;;;;;;;;;;5033502;28;20292;-88
2022/06/21 03:32:45;;;;;;;3.30;3.00;;;;;;;;;;5033873;28;20207;-89
2022/06/21 03:35:13;;;;;;;3.40;3.07;;;;;;;;;;5033114;28;20605;-87
2022/06/21 03:37:41;;;;;;;2.93;2.73;;;;;;;;;;5033530;28;20553;-87
2022/06/21 03:43:10;;;;;;;3.40;2.70;;;;;;;;;;4991414;28;20339;-87
2022/06/21 03:45:40;;;;;;;3.40;3.10;;;;;;;;;;5023908;28;20238;-87
2022/06/21 03:48:11;;;;;;;4.80;3.40;;;;;;;;;;5033627;28;20281;-87
2022/06/21 03:50:40;;;;;;;3.97;3.53;;;;;;;;;;5032770;28;20695;-86
2022/06/21 03:53:09;;;;;;;4.83;3.27;;;;;;;;;;5033317;28;20686;-88
2022/06/21 03:55:43;;;;;;;5.57;3.30;;;;;;;;;;5033067;28;20309;-87
2022/06/21 03:58:14;;;;;;;3.67;3.33;;;;;;;;;;5033275;28;20241;-87
2022/06/21 04:00:45;;;;;;;3.80;3.30;;;;;;;;;;5033533;28;20241;-88
2022/06/21 04:03:16;;;;;;;3.53;3.30;;;;;;;;;;5034025;28;20199;-87
2022/06/21 04:05:47;;;;;;;3.40;3.10;;;;;;;;;;5033143;28;20241;-88
2022/06/21 04:08:17;;;;;;;3.13;2.80;;;;;;;;;;5033277;28;20230;-88
2022/06/21 04:10:48;;;;;;;5.13;3.10;;;;;;;;;;5033394;28;20611;-88
2022/06/21 04:13:19;;;;;;;5.10;3.90;;;;;;;;;;5032864;28;20228;-88
2022/06/21 04:15:50;;;;;;;3.90;3.50;;;;;;;;;;5032781;28;20238;-88
2022/06/21 04:18:20;;;;;;;4.23;3.80;;;;;;;;;;5033075;28;20600;-88
2022/06/21 04:20:51;;;;;;;6.20;4.07;;;;;;;;;;5032173;28;20729;-88
2022/06/21 04:23:21;;;;;;;3.67;3.37;;;;;;;;;;5032908;28;20276;-88
2022/06/21 04:25:53;;;;;;;13.43;4.10;;;;;;;;;;5032546;28;20245;-88
2022/06/21 04:28:23;;;;;;;6.17;3.93;;;;;;;;;;5034931;28;20598;-88
2022/06/21 04:30:53;;;;;;;6.47;4.30;;;;;;;;;;5033604;28;20281;-89
2022/06/21 04:33:23;;;;;;;7.47;4.67;;;;;;;;;;5034181;28;20202;-89
2022/06/21 04:35:53;;;;;;;5.73;4.63;;;;;;;;;;5033649;28;20233;-89
2022/06/21 04:38:25;;;;;;;5.37;4.87;;;;;;;;;;5033710;28;20226;-89
2022/06/21 04:40:58;;;;;;;5.37;4.87;;;;;;;;;;5032798;28;20234;-89
2022/06/21 04:43:28;;;;;;;6.80;4.70;;;;;;;;;;5033554;28;20237;-89
2022/06/21 04:45:57;;;;;;;7.13;4.87;;;;;;;;;;5033084;28;20631;-88
2022/06/21 04:48:31;;;;;;;5.27;4.83;;;;;;;;;;5033678;28;20218;-88
2022/06/21 04:51:02;;;;;;;8.03;5.03;;;;;;;;;;5033487;28;20234;-89
2022/06/21 04:53:43;;;;;;;6.77;5.07;;;;;;;;;;5034204;28;20194;-89
2022/06/21 04:56:17;;;;;;;6.40;5.43;;;;;;;;;;5033430;28;20217;-89
2022/06/21 04:58:45;;;;;;;5.17;4.70;;;;;;;;;;5033518;28;20234;-89
2022/06/21 05:01:32;;;;;;;5.43;4.93;;;;;;;;;;5034612;28;20213;-90
2022/06/21 05:04:01;;;;;;;5.40;4.90;;;;;;;;;;5033490;28;20214;-90
2022/06/21 05:06:28;;;;;;;7.67;5.37;;;;;;;;;;5041640;28;20230;-90
2022/06/21 05:08:55;;;;;;;5.70;5.20;;;;;;;;;;5045941;28;20242;-88
2022/06/21 05:11:24;;;;;;;5.80;4.77;;;;;;;;;;5035034;28;20654;-85
2022/06/21 05:13:52;;;;;;;6.37;4.97;;;;;;;;;;5033405;28;20215;-85
2022/06/21 05:16:21;;;;;;;4.77;4.37;;;;;;;;;;5034957;28;20203;-85
2022/06/21 05:18:52;;;;;;;5.87;5.30;;;;;;;;;;5033153;28;20227;-86
2022/06/21 05:21:23;;;;;;;9.40;5.17;;;;;;;;;;5033301;28;20206;-86
2022/06/21 05:23:50;;;;;;;6.27;5.63;;;;;;;;;;5031975;28;20214;-85
2022/06/21 05:26:21;;;;;;;5.63;5.03;;;;;;;;;;5035066;28;20321;-86
2022/06/21 05:28:52;;;;;;;5.37;4.70;;;;;;;;;;5036791;28;20225;-87
2022/06/21 05:31:20;;;;;;;5.93;5.33;;;;;;;;;;5037915;28;20221;-85
2022/06/21 05:33:49;;;;;;;5.50;5.10;;;;;;;;;;5037305;28;20663;-85
2022/06/21 05:36:18;;;;;;;5.73;5.20;;;;;;;;;;5047501;28;20203;-86
2022/06/21 05:38:50;;;;;;;5.53;4.87;;;;;;;;;;5043144;28;20611;-86
2022/06/21 05:41:30;;;;;;;6.17;4.63;;;;;;;;;;5039587;28;20234;-86
2022/06/21 05:44:01;;;;;;;4.73;4.33;;;;;;;;;;5039294;28;20352;-84
2022/06/21 05:46:30;;;;;;;4.93;4.43;;;;;;;;;;5043863;28;20211;-86
2022/06/21 05:48:58;;;;;;;9.20;5.00;;;;;;;;;;5039498;28;20227;-86
2022/06/21 05:51:26;;;;;;;5.17;4.77;;;;;;;;;;5036871;28;20210;-86
2022/06/21 05:53:55;;;;;;;8.60;5.47;;;;;;;;;;5036494;28;20203;-86
2022/06/21 05:56:24;;;;;;;6.47;4.33;;;;;;;;;;5036964;28;20207;-86
2022/06/21 05:58:53;;;;;;;5.27;4.67;;;;;;;;;;5036266;28;20238;-86
2022/06/21 06:01:24;;;;;;;5.17;4.67;;;;;;;;;;5035956;28;20206;-87
2022/06/21 06:03:53;;;;;;;5.30;4.77;;;;;;;;;;5035932;28;20564;-85
2022/06/21 06:06:21;;;;;;;4.97;4.57;;;;;;;;;;5041008;28;20234;-82
2022/06/21 06:08:50;;;;;;;4.50;4.10;;;;;;;;;;5058154;28;20210;-84
2022/06/21 06:11:19;;;;;;;4.80;4.40;;;;;;;;;;5058032;28;20217;-85
2022/06/21 06:13:48;;;;;;;7.73;4.50;;;;;;;;;;5056929;28;20206;-83
2022/06/21 06:16:28;;;;;;;4.67;4.27;;;;;;;;;;5058024;28;20201;-84
2022/06/21 06:18:59;;;;;;;4.90;3.67;;;;;;;;;;5057240;28;20225;-85
2022/06/21 06:21:28;;;;;;;5.13;3.57;;;;;;;;;;5057803;28;20198;-83
2022/06/21 06:23:58;;;;;;;4.83;3.70;;;;;;;;;;5057177;28;20274;-83
2022/06/21 06:26:27;;;;;;;3.90;3.60;;;;;;;;;;5057811;28;20214;-83
2022/06/21 06:28:57;;;;;;;4.70;3.60;;;;;;;;;;5038365;28;20226;-88
2022/06/21 06:31:27;;;;;;;4.13;3.53;;;;;;;;;;5045388;28;20207;-87
2022/06/21 06:33:59;;;;;;;3.67;3.37;;;;;;;;;;5035363;28;20206;-85
2022/06/21 06:36:27;;;;;;;5.30;3.83;;;;;;;;;;5036238;28;20674;-87
2022/06/21 06:38:54;;;;;;;4.93;3.37;;;;;;;;;;5036155;28;20297;-86
2022/06/21 06:41:26;;;;;;;4.47;3.47;;;;;;;;;;5037218;28;20268;-86
2022/06/21 06:43:57;;;;;;;4.27;3.13;;;;;;;;;;5036120;28;20211;-87
2022/06/21 06:46:28;;;;;;;3.80;2.83;;;;;;;;;;5036216;28;20258;-88
2022/06/21 06:49:00;;;;;;;3.30;2.93;;;;;;;;;;5035937;28;20227;-86
2022/06/21 06:51:43;;;;;;;3.30;3.00;;;;;;;;;;5036939;28;20260;-86
2022/06/21 06:54:14;;;;;;;3.70;2.57;;;;;;;;;;5035500;28;20265;-87
2022/06/21 06:56:47;;;;;;;2.80;2.43;;;;;;;;;;5035826;28;20214;-87
2022/06/21 06:59:16;;;;;;;5.30;3.63;;;;;;;;;;5034913;28;20629;-86
2022/06/21 07:01:46;;;;;;;2.70;2.50;;;;;;;;;;5035621;28;20207;-85
2022/06/21 07:04:16;;;;;;;2.35;2.15;;;;;;;;;;5034751;28;20242;-85
2022/06/21 07:06:45;;;;;;;2.42;2.10;;;;;;;;;;5036044;28;20230;-86
2022/06/21 07:09:16;;;;;;;3.50;2.30;;;;;;;;;;5034364;28;20242;-86
2022/06/21 07:11:49;;;;;;;3.50;2.00;;;;;;;;;;5035478;28;20253;-86
2022/06/21 07:14:17;;;;;;;2.65;2.10;;;;;;;;;;5036595;28;20241;-85
2022/06/21 07:16:44;;;;;;;4.05;1.77;;;;;;;;;;5056626;28;20286;-84
2022/06/21 07:19:12;;;;;;;2.38;1.98;;;;;;;;;;5056219;28;20233;-82
2022/06/21 07:21:41;;;;;;;2.17;1.98;;;;;;;;;;5057082;28;20206;-82
2022/06/21 07:24:10;;;;;;;2.15;1.90;;;;;;;;;;5055809;28;20230;-83
2022/06/21 07:26:41;;;;;;;4.57;1.88;;;;;;;;;;5056546;28;20226;-86
2022/06/21 07:29:13;;;;;;;3.40;2.25;;;;;;;;;;5056165;28;20239;-83
2022/06/21 07:31:42;;;;;;;4.57;1.77;;;;;;;;;;5037360;28;20217;-86
2022/06/21 07:34:11;;;;;;;2.65;1.80;;;;;;;;;;5034301;28;20611;-85
2022/06/21 07:36:43;;;;;;;2.35;2.08;;;;;;;;;;5035499;28;20202;-85
2022/06/21 07:39:15;;;;;;;1.90;1.77;;;;;;;;;;5034160;28;20266;-87
2022/06/21 07:41:44;;;;;;;3.05;1.80;;;;;;;;;;5034889;28;20229;-86
2022/06/21 07:44:12;;;;;;;3.58;2.25;;;;;;;;;;5034368;28;20257;-86
2022/06/21 07:46:41;;;;;;;3.25;2.13;;;;;;;;;;5034789;28;20234;-86
2022/06/21 07:49:12;;;;;;;3.00;2.08;;;;;;;;;;5033350;28;20242;-86
2022/06/21 07:51:42;;;;;;;4.35;2.05;;;;;;;;;;5034812;28;20675;-86
2022/06/21 07:54:11;;;;;;;3.45;2.10;;;;;;;;;;5033511;28;20238;-84
2022/06/21 07:56:42;;;;;;;2.40;1.95;;;;;;;;;;5034297;28;20199;-86
2022/06/21 07:59:16;;;;;;;2.17;1.98;;;;;;;;;;5033507;28;20246;-86
2022/06/21 08:07:18;;;;;;;4.47;1.88;;;;;;;;;;5034177;28;20229;-85
2022/06/21 08:09:49;;;;;;;2.38;1.90;;;;;;;;;;5033574;28;20262;-86
2022/06/21 08:12:18;;;;;;;2.33;1.77;;;;;;;;;;5034316;28;20187;-87
2022/06/21 08:14:45;;;;;;;3.30;2.30;;;;;;;;;;5033420;28;20234;-86
2022/06/21 08:17:17;;;;;;;2.35;1.67;;;;;;;;;;5034340;28;20675;-86
2022/06/21 08:19:47;;;;;;;4.50;1.65;;;;;;;;;;5033667;28;20309;-85
2022/06/21 08:22:15;;;;;;;1.80;1.40;;;;;;;;;;5033942;28;20195;-85
2022/06/21 08:24:45;;;;;;;2.28;1.88;;;;;;;;;;5033393;28;20241;-87
2022/06/21 08:27:17;;;;;;;3.88;1.38;;;;;;;;;;5034303;28;20614;-88
2022/06/21 08:29:49;;;;;;;2.80;1.80;;;;;;;;;;5033685;28;20234;-85
2022/06/21 08:32:20;;;;;;;2.15;1.63;;;;;;;;;;5033950;28;20635;-86
2022/06/21 08:34:48;;;;;;;2.42;1.67;;;;;;;;;;5033195;28;20723;-87
2022/06/21 08:37:18;;;;;;;1.77;1.45;;;;;;;;;;5033978;28;20211;-86
2022/06/21 08:39:47;;;;;;;4.93;1.60;;;;;;;;;;5033680;28;20246;-86
2022/06/21 08:42:25;;;;;;;5.10;1.80;;;;;;;;;;5033733;28;20202;-86
2022/06/21 08:48:13;;;;;;;4.57;1.73;;;;;;;;;;5033646;28;20213;-86
2022/06/21 08:50:50;;;;;;;1.88;1.70;;;;;;;;;;5033899;28;20714;-86
2022/06/21 08:53:29;;;;;;;3.92;1.95;;;;;;;;;;5034932;28;20213;-88
2022/06/21 08:55:59;;;;;;;1.70;1.60;;;;;;;;;;5032956;28;20238;-87
2022/06/21 08:58:32;;;;;;;3.45;1.70;;;;;;;;;;5033869;28;20230;-86
2022/06/21 09:01:02;;;;;;;2.53;1.75;;;;;;;;;;5036848;28;20230;-84
2022/06/21 09:03:39;;;;;;;3.97;1.70;;;;;;;;;;5039209;28;20206;-85
2022/06/21 09:06:15;;;;;;;3.60;1.45;;;;;;;;;;5038957;28;20210;-85
2022/06/21 09:08:56;;;;;;;5.35;1.48;;;;;;;;;;5037177;28;20285;-85
2022/06/21 09:11:30;;;;;;;3.65;1.30;;;;;;;;;;5043771;28;20197;-85
2022/06/21 09:14:16;;;;;;;2.10;1.25;;;;;;;;;;5036393;28;20585;-85
2022/06/21 09:16:47;;;;;;;2.78;1.40;;;;;;;;;;5036851;28;20210;-85
2022/06/21 09:19:23;;;;;;;3.95;2.22;;;;;;;;;;5036778;28;20237;-84
2022/06/21 09:21:54;;;;;;;2.88;1.52;;;;;;;;;;5037034;28;20194;-85
2022/06/21 09:24:27;;;;;;;3.47;1.73;;;;;;;;;;5036142;28;20241;-85
2022/06/21 09:26:57;;;;;;;2.08;1.13;;;;;;;;;;5039681;28;20219;-84
2022/06/21 09:29:27;;;;;;;3.67;1.42;;;;;;;;;;5043424;28;20300;-85
2022/06/21 09:32:02;;;;;;;2.67;1.30;;;;;;;;;;5038074;28;20203;-85
2022/06/21 09:34:33;;;;;;;2.72;1.55;;;;;;;;;;5036073;28;20245;-85
2022/06/21 09:37:06;;;;;;;1.83;1.20;;;;;;;;;;5036429;28;20252;-85
2022/06/21 09:39:37;;;;;;;1.75;0.90;;;;;;;;;;5036151;28;20703;-85
2022/06/21 09:42:08;;;;;;;1.92;1.20;;;;;;;;;;5036571;28;20215;-85
2022/06/21 09:44:37;;;;;;;2.05;1.55;;;;;;;;;;5035392;28;20258;-85
2022/06/21 09:47:08;;;;;;;1.88;1.20;;;;;;;;;;5035624;28;20239;-85
2022/06/21 09:49:43;;;;;;;3.90;1.50;;;;;;;;;;5035388;28;20325;-85
2022/06/21 09:52:16;;;;;;;4.97;1.30;;;;;;;;;;5036484;28;20206;-84
2022/06/21 09:54:47;;;;;;;5.63;1.45;;;;;;;;;;5035723;28;20235;-86
2022/06/21 09:57:20;;;;;;;1.23;1.15;;;;;;;;;;5036450;28;20198;-85
2022/06/21 09:59:51;;;;;;;1.33;1.23;;;;;;;;;;5040324;28;20317;-86
2022/06/21 10:02:20;;;;;;;2.38;1.23;;;;;;;;;;5036464;28;20233;-86
2022/06/21 10:04:54;;;;;;;1.52;1.42;;;;;;;;;;5034530;28;20238;-86
2022/06/21 10:07:37;;;;;;;1.80;1.25;;;;;;;;;;5034713;28;20231;-85
2022/06/21 10:10:15;;;;;;;1.65;1.20;;;;;;;;;;5034326;28;20249;-84
2022/06/21 10:12:46;;;;;;;1.95;1.05;;;;;;;;;;5033908;28;20639;-83
2022/06/21 10:15:37;;;;;;;2.00;1.27;;;;;;;;;;5034063;28;20234;-84
2022/06/21 10:18:15;;;;;;;1.55;1.40;;;;;;;;;;5014994;28;20199;-84
2022/06/21 10:20:55;;;;;;;3.45;1.30;;;;;;;;;;5036326;28;20237;-83
2022/06/21 10:23:32;;;;;;;2.70;1.25;;;;;;;;;;5036159;28;20210;-84
2022/06/21 10:26:06;;;;;;;1.50;1.25;;;;;;;;;;5034695;28;20241;-85
2022/06/21 10:28:44;;;;;;;1.50;1.15;;;;;;;;;;5036024;28;20698;-86
2022/06/21 10:31:17;;;;;;;1.05;0.95;;;;;;;;;;5034679;28;20230;-85
2022/06/21 10:33:54;;;;;;;1.23;0.93;;;;;;;;;;5034468;28;20195;-84
2022/06/21 10:36:29;;;;;;;2.38;1.42;;;;;;;;;;5034440;28;20198;-82
2022/06/21 10:39:14;;;;;;;2.45;1.20;;;;;;;;;;5033856;28;20335;-84
2022/06/21 10:42:46;;;;;;;2.95;1.13;;;;;;;;;;5034023;28;20256;-83
2022/06/21 10:44:40;;;;;;;1.60;0.90;;;;;;;;;;5033452;28;20683;-84
2022/06/21 10:47:16;;;;;;;1.95;1.00;;;;;;;;;;5033781;28;20218;-84
2022/06/21 10:50:04;;;;;;;1.85;1.10;;;;;;;;;;5033580;28;20242;-85
2022/06/21 10:52:43;;;;;;;2.17;1.20;;;;;;;;;;5034069;28;20214;-83
2022/06/21 10:55:17;;;;;;;1.33;1.00;;;;;;;;;;5033415;28;20234;-85
2022/06/21 10:57:47;;;;;;;0.95;0.90;;;;;;;;;;5033858;28;20194;-85
2022/06/21 11:03:21;;;;;;;3.35;1.17;;;;;;;;;;4986181;28;20222;-84
2022/06/21 11:05:52;;;;;;;2.28;1.02;;;;;;;;;;5033228;28;20230;-85
2022/06/21 11:08:28;;;;;;;0.98;0.80;;;;;;;;;;5033551;28;20246;-85
2022/06/21 11:10:58;;;;;;;1.27;1.17;;;;;;;;;;5033120;28;20235;-84
2022/06/21 11:13:29;;;;;;;1.08;0.93;;;;;;;;;;5033295;28;20206;-83
2022/06/21 11:16:00;;;;;;;1.45;1.00;;;;;;;;;;5033383;28;20284;-87
2022/06/21 11:18:37;;;;;;;1.27;1.02;;;;;;;;;;5033438;28;20230;-86
2022/06/21 11:21:09;;;;;;;3.67;1.30;;;;;;;;;;5032775;28;20245;-87
2022/06/21 11:23:42;;;;;;;2.40;1.00;;;;;;;;;;5032384;28;20195;-87
2022/06/21 11:26:14;;;;;;;0.80;0.80;;;;;;;;;;5032910;28;20235;-87
2022/06/21 11:28:43;;;;;;;2.42;1.30;;;;;;;;;;5032415;28;20242;-86
2022/06/21 11:31:13;;;;;;;3.55;1.20;;;;;;;;;;5033861;28;20218;-86
2022/06/21 11:33:46;;;;;;;1.30;1.10;;;;;;;;;;5032929;28;20210;-86
2022/06/21 11:36:17;;;;;;;1.30;1.10;;;;;;;;;;5034975;28;20195;-85
2022/06/21 11:38:52;;;;;;;2.20;1.00;;;;;;;;;;5034267;28;20314;-85
2022/06/21 11:44:12;;;;;;;1.50;1.20;;;;;;;;;;5033743;28;20286;-86
2022/06/21 11:46:42;;;;;;;2.33;0.80;;;;;;;;;;5035231;28;20193;-86
2022/06/21 11:49:28;;;;;;;0.88;0.88;;;;;;;;;;5036838;28;20239;-87
2022/06/21 11:52:13;;;;;;;1.83;0.95;;;;;;;;;;5037411;28;20207;-84
2022/06/21 11:54:44;;;;;;;2.58;1.33;;;;;;;;;;5032961;28;20238;-84
2022/06/21 11:57:15;;;;;;;2.33;1.10;;;;;;;;;;5032814;28;20209;-85
2022/06/21 11:59:46;;;;;;;1.45;0.98;;;;;;;;;;5032047;28;20246;-86
2022/06/21 12:02:18;;;;;;;7.15;1.30;;;;;;;;;;5032459;28;20222;-85
2022/06/21 12:04:48;;;;;;;2.33;1.10;;;;;;;;;;5032130;28;20238;-85
2022/06/21 12:07:18;;;;;;;1.23;1.15;;;;;;;;;;5032861;28;20206;-86
2022/06/21 12:09:50;;;;;;;2.92;1.15;;;;;;;;;;5032166;28;20333;-86
2022/06/21 12:12:22;;;;;;;1.10;1.00;;;;;;;;;;5033866;28;20966;-87
2022/06/21 12:14:54;;;;;;;2.25;1.20;;;;;;;;;;5031867;28;20613;-86
2022/06/21 12:17:22;;;;;;;3.72;1.13;;;;;;;;;;5032369;28;20624;-86
2022/06/21 12:19:53;;;;;;;1.27;1.00;;;;;;;;;;5032136;28;20249;-86
2022/06/21 12:22:24;;;;;;;1.20;1.10;;;;;;;;;;5032893;28;20203;-84
2022/06/21 12:24:53;;;;;;;1.25;0.93;;;;;;;;;;5032540;28;20234;-87
2022/06/21 12:27:20;;;;;;;1.10;0.80;;;;;;;;;;5032833;28;20225;-87
2022/06/21 12:29:47;;;;;;;1.92;1.05;;;;;;;;;;5033370;28;20246;-85
2022/06/21 12:32:18;;;;;;;1.88;0.88;;;;;;;;;;5033336;28;20233;-87
2022/06/21 12:34:51;;;;;;;4.50;1.67;;;;;;;;;;5032056;28;20245;-86
2022/06/21 12:37:21;;;;;;;1.65;0.98;;;;;;;;;;5033073;28;20660;-85
2022/06/21 12:39:51;;;;;;;1.00;0.95;;;;;;;;;;5033559;28;20242;-86
2022/06/21 12:42:36;;;;;;;2.28;1.00;;;;;;;;;;5035010;28;20219;-85
2022/06/21 12:45:10;;;;;;;2.70;1.10;;;;;;;;;;5033868;28;20261;-86
2022/06/21 12:47:45;;;;;;;3.08;1.23;;;;;;;;;;5032966;28;20639;-86
2022/06/21 12:50:29;;;;;;;2.72;0.93;;;;;;;;;;5032570;28;20241;-86
2022/06/21 12:53:05;;;;;;;1.13;1.13;;;;;;;;;;5032721;28;20361;-86
2022/06/21 12:55:37;;;;;;;1.77;1.17;;;;;;;;;;5031783;28;20242;-85
2022/06/21 12:58:09;;;;;;;1.13;1.00;;;;;;;;;;5032487;28;20187;-86
2022/06/21 13:00:43;;;;;;;1.73;0.88;;;;;;;;;;5032099;28;20245;-85
2022/06/21 13:03:25;;;;;;;1.48;0.90;;;;;;;;;;5032328;28;20221;-85
2022/06/21 13:06:02;;;;;;;3.30;1.02;;;;;;;;;;5029349;28;20230;-86
2022/06/21 13:08:55;;;;;;;1.73;0.90;;;;;;;;;;5032450;28;20230;-86
2022/06/21 13:11:27;;;;;;;1.95;0.93;;;;;;;;;;5033241;28;20714;-86
2022/06/21 13:14:01;;;;;;;3.50;1.20;;;;;;;;;;5031822;28;20191;-86
2022/06/21 13:16:35;;;;;;;1.00;0.90;;;;;;;;;;5033645;28;20198;-85
2022/06/21 13:19:23;;;;;;;1.23;1.13;;;;;;;;;;5032966;28;20604;-86
2022/06/21 13:21:55;;;;;;;3.22;1.00;;;;;;;;;;5032143;28;20221;-85
2022/06/21 13:24:28;;;;;;;2.03;0.95;;;;;;;;;;5032435;28;20738;-87
2022/06/21 13:27:07;;;;;;;2.17;1.00;;;;;;;;;;5032807;28;20210;-85
2022/06/21 13:29:38;;;;;;;0.75;0.70;;;;;;;;;;5031772;28;20253;-84
2022/06/21 13:32:08;;;;;;;0.75;0.75;;;;;;;;;;5032474;28;20675;-85
2022/06/21 13:34:37;;;;;;;2.97;0.95;;;;;;;;;;5031608;28;20235;-86
2022/06/21 13:37:09;;;;;;;1.00;0.82;;;;;;;;;;5032680;28;20211;-85
2022/06/21 13:39:38;;;;;;;4.05;1.00;;;;;;;;;;5031328;28;20243;-85
2022/06/21 13:44:55;;;;;;;1.77;1.05;;;;;;;;;;5031329;28;20709;-86
2022/06/21 13:47:26;;;;;;;1.77;1.10;;;;;;;;;;5036655;28;20621;-86
2022/06/21 13:49:57;;;;;;;2.00;1.02;;;;;;;;;;5035463;28;20235;-85
2022/06/21 13:52:27;;;;;;;2.70;0.77;;;;;;;;;;5036713;28;20187;-86
2022/06/21 13:55:00;;;;;;;2.08;0.90;;;;;;;;;;5036415;28;20238;-85
2022/06/21 13:57:42;;;;;;;1.15;0.90;;;;;;;;;;5035460;28;20206;-85
2022/06/21 14:00:10;;;;;;;1.13;1.10;;;;;;;;;;5031923;28;20258;-86
2022/06/21 14:02:42;;;;;;;6.43;1.50;;;;;;;;;;5035040;28;20198;-85
2022/06/21 14:05:14;;;;;;;1.30;1.15;;;;;;;;;;5034291;28;20242;-86
2022/06/21 14:07:45;;;;;;;1.20;0.85;;;;;;;;;;5035146;28;20198;-86
2022/06/21 14:10:17;;;;;;;3.42;0.70;;;;;;;;;;5034117;28;20262;-85
2022/06/21 14:12:51;;;;;;;1.27;1.17;;;;;;;;;;5034981;28;20191;-86
2022/06/21 14:15:21;;;;;;;2.58;1.40;;;;;;;;;;5034178;28;20242;-86
2022/06/21 14:17:52;;;;;;;1.85;1.00;;;;;;;;;;5036367;28;20695;-86
2022/06/21 14:20:21;;;;;;;1.98;1.20;;;;;;;;;;5034227;28;20698;-85
2022/06/21 14:22:52;;;;;;;1.35;1.05;;;;;;;;;;5035429;28;20301;-85
2022/06/21 14:25:25;;;;;;;1.02;0.93;;;;;;;;;;5034005;28;20313;-86
2022/06/21 14:27:54;;;;;;;2.47;1.25;;;;;;;;;;5034530;28;20203;-85
2022/06/21 14:30:24;;;;;;;1.52;1.00;;;;;;;;;;5037190;28;20238;-85
2022/06/21 14:32:56;;;;;;;3.80;1.38;;;;;;;;;;5035807;28;20203;-86
2022/06/21 14:35:25;;;;;;;2.15;1.15;;;;;;;;;;5035168;28;20610;-85
2022/06/21 14:37:55;;;;;;;1.50;0.77;;;;;;;;;;5040302;28;20688;-86
2022/06/21 14:40:28;;;;;;;1.65;1.10;;;;;;;;;;5052088;28;20218;-86
2022/06/21 14:42:57;;;;;;;4.57;1.08;;;;;;;;;;5047706;28;20187;-85
2022/06/21 14:45:29;;;;;;;4.45;1.23;;;;;;;;;;5043941;28;20235;-85
2022/06/21 14:48:00;;;;;;;1.05;1.00;;;;;;;;;;5034577;28;20187;-85
2022/06/21 14:50:29;;;;;;;1.10;1.00;;;;;;;;;;5033816;28;20234;-86
2022/06/21 14:53:23;;;;;;;1.05;0.95;;;;;;;;;;5034226;28;20218;-86
2022/06/21 14:55:56;;;;;;;2.28;1.00;;;;;;;;;;4986987;28;20245;-85
2022/06/21 14:58:39;;;;;;;2.15;1.65;;;;;;;;;;5034167;28;20340;-86
2022/06/21 15:01:12;;;;;;;1.52;1.20;;;;;;;;;;5034832;28;20219;-87
2022/06/21 15:03:48;;;;;;;1.38;0.98;;;;;;;;;;5034278;28;20214;-86
2022/06/21 15:06:18;;;;;;;2.13;0.98;;;;;;;;;;5034600;28;20332;-85
2022/06/21 15:08:52;;;;;;;1.90;1.05;;;;;;;;;;5034103;28;20238;-84
2022/06/21 15:11:22;;;;;;;2.97;1.25;;;;;;;;;;5034142;28;20305;-85
2022/06/21 15:13:54;;;;;;;2.42;1.05;;;;;;;;;;5033157;28;20213;-84
2022/06/21 15:16:24;;;;;;;4.05;1.20;;;;;;;;;;5034041;28;20207;-86
2022/06/21 15:19:53;;;;;;;2.08;1.10;;;;;;;;;;5033484;28;20241;-87
2022/06/21 15:21:50;;;;;;;2.45;1.27;;;;;;;;;;5033701;28;20265;-86
2022/06/21 15:24:20;;;;;;;1.90;1.20;;;;;;;;;;5033328;28;20238;-85
2022/06/21 15:26:49;;;;;;;3.05;1.10;;;;;;;;;;5034551;28;20313;-86
2022/06/21 15:29:18;;;;;;;4.15;1.10;;;;;;;;;;5033628;28;20876;-86